createdAt,value
2018-07-01T00:00:22.800Z,33.90
2018-07-01T00:01:25.306Z,34.00
2018-07-01T00:02:27.778Z,34.90
2018-07-01T00:03:30.298Z,34.10
2018-07-01T00:05:35.200Z,34.30
2018-07-01T00:06:37.482Z,34.60
2018-07-01T00:07:40.369Z,34.50
2018-07-01T00:08:42.927Z,34.60
2018-07-01T00:09:45.446Z,34.60
2018-07-01T00:10:47.974Z,34.60
2018-07-01T00:11:50.537Z,34.80
2018-07-01T00:12:53.142Z,34.60
2018-07-01T00:13:55.780Z,34.80
2018-07-01T00:14:58.256Z,35.00
2018-07-01T00:16:01.023Z,34.80
2018-07-01T00:17:03.546Z,35.20
2018-07-01T00:18:06.115Z,35.00
2018-07-01T00:19:08.620Z,35.00
2018-07-01T00:20:11.240Z,35.00
2018-07-01T00:21:13.761Z,35.20
2018-07-01T00:22:16.259Z,35.20
2018-07-01T00:23:19.539Z,35.30
2018-07-01T00:24:22.142Z,35.50
2018-07-01T00:26:27.442Z,35.60
2018-07-01T00:27:29.963Z,35.80
2018-07-01T00:28:33.243Z,35.80
2018-07-01T00:29:35.806Z,36.00
2018-07-01T00:30:38.298Z,36.30
2018-07-01T00:31:40.946Z,36.20
2018-07-01T00:32:43.429Z,36.40
2018-07-01T00:33:45.956Z,36.60
2018-07-01T00:34:48.529Z,36.80
2018-07-01T00:35:51.230Z,37.00
2018-07-01T00:36:53.863Z,36.90
2018-07-01T00:37:56.420Z,36.80
2018-07-01T00:38:58.908Z,37.10
2018-07-01T00:40:01.405Z,37.10
2018-07-01T00:41:04.036Z,37.10
2018-07-01T00:42:06.700Z,37.10
2018-07-01T00:44:11.671Z,37.10
2018-07-01T00:45:14.190Z,37.30
2018-07-01T00:46:16.761Z,37.20
2018-07-01T00:47:19.103Z,37.20
2018-07-01T00:48:21.583Z,37.20
2018-07-01T00:49:24.054Z,36.90
2018-07-01T00:51:28.968Z,36.90
2018-07-01T00:52:31.387Z,37.20
2018-07-01T00:53:33.817Z,36.90
2018-07-01T00:55:38.835Z,36.90
2018-07-01T00:57:43.766Z,37.00
2018-07-01T00:58:46.215Z,37.00
2018-07-01T00:59:48.470Z,37.10
2018-07-01T01:00:50.963Z,37.00
2018-07-01T01:01:53.441Z,37.00
2018-07-01T01:02:55.891Z,36.20
2018-07-01T01:03:58.397Z,36.70
2018-07-01T01:05:00.786Z,36.90
2018-07-01T01:06:03.223Z,36.90
2018-07-01T01:07:05.662Z,37.20
2018-07-01T01:08:08.244Z,36.90
2018-07-01T01:09:13.040Z,36.90
2018-07-01T01:10:15.502Z,37.30
2018-07-01T01:11:18.078Z,37.00
2018-07-01T01:12:20.539Z,37.50
2018-07-01T01:13:22.940Z,37.40
2018-07-01T01:14:25.390Z,37.30
2018-07-01T01:15:27.858Z,36.80
2018-07-01T01:16:30.310Z,36.80
2018-07-01T01:17:32.857Z,36.80
2018-07-01T01:18:35.367Z,37.00
2018-07-01T01:19:37.866Z,37.30
2018-07-01T01:20:40.372Z,37.50
2018-07-01T01:21:42.810Z,37.80
2018-07-01T01:23:47.777Z,38.00
2018-07-01T01:24:50.220Z,38.20
2018-07-01T01:26:54.964Z,38.90
2018-07-01T01:27:57.399Z,39.00
2018-07-01T01:28:59.883Z,39.50
2018-07-01T01:30:02.340Z,39.40
2018-07-01T01:31:04.831Z,39.50
2018-07-01T01:32:08.013Z,39.50
2018-07-01T01:33:10.480Z,39.30
2018-07-01T01:34:12.902Z,39.00
2018-07-01T01:35:15.367Z,39.30
2018-07-01T01:37:20.399Z,38.50
2018-07-01T01:38:24.282Z,38.10
2018-07-01T01:39:29.400Z,38.40
2018-07-01T01:40:36.232Z,38.80
2018-07-01T01:41:42.032Z,38.80
2018-07-01T01:42:49.083Z,38.50
2018-07-01T01:43:57.032Z,38.30
2018-07-01T01:45:03.485Z,37.90
2018-07-01T01:46:14.112Z,37.90
2018-07-01T01:47:52.356Z,38.00
2018-07-01T01:49:01.212Z,37.60
2018-07-01T01:52:12.550Z,37.70
2018-07-01T01:53:20.804Z,37.70
2018-07-01T01:54:33.132Z,37.70
2018-07-01T01:57:43.611Z,37.70
2018-07-01T01:58:50.502Z,37.70
2018-07-01T01:59:59.015Z,38.40
2018-07-01T02:01:06.082Z,38.30
2018-07-01T02:02:13.927Z,38.20
2018-07-01T02:03:23.431Z,38.00
2018-07-01T02:04:32.195Z,39.20
2018-07-01T02:07:41.988Z,38.40
2018-07-01T02:08:51.449Z,38.30
2018-07-01T02:09:54.039Z,38.50
2018-07-01T02:10:56.590Z,38.70
2018-07-01T02:12:00.356Z,38.40
2018-07-01T02:13:02.838Z,38.40
2018-07-01T02:15:18.647Z,39.80
2018-07-01T02:16:25.016Z,40.20
2018-07-01T02:17:34.127Z,40.70
2018-07-01T02:18:36.688Z,40.90
2018-07-01T02:19:39.276Z,41.50
2018-07-01T02:20:42.236Z,41.70
2018-07-01T02:21:44.793Z,41.90
2018-07-01T02:22:52.605Z,41.90
2018-07-01T02:23:59.143Z,41.80
2018-07-01T02:25:03.514Z,41.70
2018-07-01T02:26:05.992Z,41.70
2018-07-01T02:27:08.504Z,41.50
2018-07-01T02:28:11.047Z,40.90
2018-07-01T02:29:13.587Z,41.50
2018-07-01T02:30:16.143Z,40.50
2018-07-01T02:31:18.614Z,40.40
2018-07-01T02:32:21.028Z,40.10
2018-07-01T02:33:23.496Z,40.10
2018-07-01T02:34:25.932Z,39.60
2018-07-01T02:35:28.458Z,40.00
2018-07-01T02:36:30.864Z,40.00
2018-07-01T02:37:33.362Z,39.90
2018-07-01T02:38:35.908Z,39.80
2018-07-01T02:39:38.371Z,39.70
2018-07-01T02:40:40.808Z,39.60
2018-07-01T02:42:45.739Z,38.80
2018-07-01T02:43:48.187Z,39.60
2018-07-01T02:44:50.638Z,39.40
2018-07-01T02:45:53.948Z,39.70
2018-07-01T02:46:56.348Z,39.50
2018-07-01T02:47:58.849Z,40.10
2018-07-01T02:49:01.744Z,39.30
2018-07-01T02:50:04.644Z,39.40
2018-07-01T02:51:07.113Z,39.70
2018-07-01T02:52:09.659Z,39.20
2018-07-01T02:53:12.023Z,39.10
2018-07-01T02:55:16.871Z,39.10
2018-07-01T02:56:19.320Z,39.20
2018-07-01T02:58:24.357Z,39.10
2018-07-01T02:59:26.905Z,39.20
2018-07-01T03:00:29.374Z,39.30
2018-07-01T03:02:34.423Z,38.80
2018-07-01T03:04:39.440Z,39.20
2018-07-01T03:05:41.925Z,39.10
2018-07-01T03:06:44.395Z,39.20
2018-07-01T03:07:46.894Z,39.00
2018-07-01T03:08:49.479Z,39.00
2018-07-01T03:09:51.983Z,39.10
2018-07-01T03:10:54.436Z,39.10
2018-07-01T03:11:56.888Z,39.10
2018-07-01T03:12:59.271Z,39.20
2018-07-01T03:15:04.176Z,39.40
2018-07-01T03:16:06.755Z,39.30
2018-07-01T03:17:09.355Z,39.30
2018-07-01T03:18:11.776Z,39.30
2018-07-01T03:19:14.398Z,39.40
2018-07-01T03:20:16.797Z,39.50
2018-07-01T03:21:19.267Z,39.60
2018-07-01T03:22:21.719Z,39.50
2018-07-01T03:23:24.191Z,39.60
2018-07-01T03:24:26.687Z,39.70
2018-07-01T03:25:29.276Z,39.70
2018-07-01T03:26:31.746Z,39.70
2018-07-01T03:27:34.263Z,39.80
2018-07-01T03:28:36.751Z,39.70
2018-07-01T03:29:39.191Z,40.00
2018-07-01T03:30:41.695Z,39.90
2018-07-01T03:31:44.137Z,40.10
2018-07-01T03:32:46.610Z,40.10
2018-07-01T03:34:51.476Z,40.10
2018-07-01T03:35:53.958Z,40.10
2018-07-01T03:36:56.512Z,40.00
2018-07-01T03:37:59.003Z,39.90
2018-07-01T03:39:01.531Z,40.00
2018-07-01T03:40:04.094Z,40.10
2018-07-01T03:41:06.552Z,39.90
2018-07-01T03:42:09.016Z,40.00
2018-07-01T03:43:11.493Z,40.00
2018-07-01T03:44:13.905Z,40.10
2018-07-01T03:45:16.367Z,40.10
2018-07-01T03:46:18.771Z,40.10
2018-07-01T03:47:21.184Z,40.10
2018-07-01T03:48:23.696Z,40.10
2018-07-01T03:49:26.318Z,40.00
2018-07-01T03:50:28.819Z,40.70
2018-07-01T03:51:31.288Z,40.10
2018-07-01T03:52:33.742Z,39.90
2018-07-01T03:53:36.283Z,40.00
2018-07-01T03:54:38.767Z,40.00
2018-07-01T03:55:41.229Z,40.10
2018-07-01T03:56:43.696Z,40.00
2018-07-01T03:57:46.268Z,40.00
2018-07-01T03:58:48.725Z,40.90
2018-07-01T03:59:51.224Z,40.30
2018-07-01T04:00:53.695Z,40.40
2018-07-01T04:01:56.153Z,40.40
2018-07-01T04:02:58.595Z,40.40
2018-07-01T04:04:01.151Z,40.70
2018-07-01T04:05:03.720Z,40.50
2018-07-01T04:06:06.740Z,40.30
2018-07-01T04:07:09.351Z,40.60
2018-07-01T04:08:11.830Z,40.50
2018-07-01T04:09:14.271Z,40.50
2018-07-01T04:10:16.707Z,41.00
2018-07-01T04:11:19.230Z,41.00
2018-07-01T04:13:24.164Z,41.00
2018-07-01T04:14:26.674Z,40.80
2018-07-01T04:15:29.055Z,40.80
2018-07-01T04:16:31.556Z,40.80
2018-07-01T04:17:34.091Z,40.90
2018-07-01T04:18:37.627Z,41.00
2018-07-01T04:20:42.462Z,41.00
2018-07-01T04:21:45.427Z,40.90
2018-07-01T04:22:47.841Z,40.90
2018-07-01T04:23:50.292Z,40.70
2018-07-01T04:24:52.741Z,41.00
2018-07-01T04:25:55.258Z,40.90
2018-07-01T04:26:57.662Z,41.00
2018-07-01T04:28:00.124Z,41.10
2018-07-01T04:29:02.598Z,41.00
2018-07-01T04:30:05.555Z,41.00
2018-07-01T04:31:08.225Z,41.00
2018-07-01T04:32:10.567Z,41.10
2018-07-01T04:33:13.022Z,41.30
2018-07-01T04:34:15.439Z,41.10
2018-07-01T04:35:17.934Z,40.90
2018-07-01T04:36:20.446Z,41.10
2018-07-01T04:37:22.912Z,41.10
2018-07-01T04:38:25.404Z,40.90
2018-07-01T04:39:27.932Z,41.20
2018-07-01T04:41:32.785Z,41.60
2018-07-01T04:42:35.208Z,41.70
2018-07-01T04:43:37.467Z,41.50
2018-07-01T04:44:39.931Z,41.50
2018-07-01T04:45:42.395Z,41.20
2018-07-01T04:46:44.885Z,41.20
2018-07-01T04:47:47.336Z,41.10
2018-07-01T04:48:50.682Z,41.10
2018-07-01T04:49:53.147Z,41.20
2018-07-01T04:50:55.574Z,41.00
2018-07-01T04:51:58.014Z,41.10
2018-07-01T04:53:00.512Z,41.10
2018-07-01T04:54:02.950Z,41.30
2018-07-01T04:55:05.423Z,41.50
2018-07-01T04:56:07.924Z,41.40
2018-07-01T04:57:10.389Z,41.40
2018-07-01T04:58:12.800Z,41.80
2018-07-01T04:59:15.194Z,41.30
2018-07-01T05:00:17.580Z,41.60
2018-07-01T05:01:20.018Z,41.50
2018-07-01T05:02:22.473Z,41.40
2018-07-01T05:03:24.852Z,41.40
2018-07-01T05:04:27.269Z,41.60
2018-07-01T05:05:29.660Z,41.30
2018-07-01T05:06:32.105Z,41.30
2018-07-01T05:08:36.848Z,41.40
2018-07-01T05:09:39.331Z,41.30
2018-07-01T05:10:41.746Z,41.10
2018-07-01T05:11:44.158Z,41.20
2018-07-01T05:12:46.586Z,41.30
2018-07-01T05:14:51.535Z,41.50
2018-07-01T05:15:53.954Z,41.60
2018-07-01T05:16:56.403Z,41.40
2018-07-01T05:17:58.842Z,41.70
2018-07-01T05:19:01.255Z,42.10
2018-07-01T05:20:03.658Z,41.80
2018-07-01T05:21:06.022Z,41.40
2018-07-01T05:22:08.428Z,41.50
2018-07-01T05:23:10.834Z,41.20
2018-07-01T05:25:15.521Z,41.10
2018-07-01T05:26:17.880Z,41.30
2018-07-01T05:27:20.292Z,41.50
2018-07-01T05:29:25.101Z,41.80
2018-07-01T05:30:27.435Z,41.40
2018-07-01T05:31:29.796Z,41.50
2018-07-01T05:32:32.224Z,41.40
2018-07-01T05:33:34.554Z,41.40
2018-07-01T05:34:36.931Z,41.50
2018-07-01T05:35:39.179Z,41.50
2018-07-01T05:36:41.423Z,41.70
2018-07-01T05:37:43.694Z,41.50
2018-07-01T05:38:46.038Z,41.40
2018-07-01T05:39:48.294Z,41.50
2018-07-01T05:40:50.542Z,41.20
2018-07-01T05:41:52.876Z,41.40
2018-07-01T05:42:55.202Z,41.40
2018-07-01T05:43:57.447Z,41.50
2018-07-01T05:44:59.758Z,41.40
2018-07-01T05:46:02.003Z,41.40
2018-07-01T05:47:04.276Z,41.40
2018-07-01T05:48:06.526Z,41.80
2018-07-01T05:49:08.815Z,41.90
2018-07-01T05:50:11.075Z,41.50
2018-07-01T05:51:13.389Z,40.70
2018-07-01T05:53:17.928Z,40.50
2018-07-01T05:54:20.218Z,40.60
2018-07-01T05:55:22.493Z,40.60
2018-07-01T05:56:24.810Z,40.70
2018-07-01T05:57:27.106Z,40.70
2018-07-01T05:58:29.499Z,41.40
2018-07-01T05:59:31.767Z,40.80
2018-07-01T06:00:34.270Z,40.90
2018-07-01T06:01:36.565Z,41.00
2018-07-01T06:02:38.822Z,41.00
2018-07-01T06:03:41.091Z,40.30
2018-07-01T06:04:43.365Z,39.90
2018-07-01T06:05:45.683Z,39.50
2018-07-01T06:06:47.975Z,39.80
2018-07-01T06:07:50.319Z,39.70
2018-07-01T06:08:52.639Z,39.40
2018-07-01T06:09:54.971Z,39.30
2018-07-01T06:11:59.659Z,39.80
2018-07-01T06:13:01.983Z,39.40
2018-07-01T06:14:04.807Z,39.60
2018-07-01T06:15:07.138Z,38.70
2018-07-01T06:16:09.405Z,39.10
2018-07-01T06:17:11.859Z,39.10
2018-07-01T06:18:14.215Z,39.10
2018-07-01T06:19:16.623Z,39.00
2018-07-01T06:20:19.041Z,38.80
2018-07-01T06:21:21.400Z,38.40
2018-07-01T06:22:23.778Z,38.40
2018-07-01T06:23:26.169Z,37.90
2018-07-01T06:24:28.562Z,37.80
2018-07-01T06:25:31.002Z,37.60
2018-07-01T06:26:33.434Z,37.90
2018-07-01T06:27:35.831Z,37.90
2018-07-01T06:28:38.239Z,37.80
2018-07-01T06:29:40.633Z,37.70
2018-07-01T06:30:43.031Z,37.50
2018-07-01T06:31:45.500Z,37.90
2018-07-01T06:32:47.997Z,38.10
2018-07-01T06:33:50.475Z,38.20
2018-07-01T06:34:52.822Z,37.50
2018-07-01T06:35:55.195Z,38.20
2018-07-01T06:36:57.587Z,37.50
2018-07-01T06:37:59.988Z,37.10
2018-07-01T06:40:05.845Z,37.50
2018-07-01T06:41:08.401Z,37.30
2018-07-01T06:42:10.782Z,37.10
2018-07-01T06:43:13.171Z,36.90
2018-07-01T06:44:15.450Z,37.20
2018-07-01T06:45:18.043Z,37.10
2018-07-01T06:46:20.391Z,36.70
2018-07-01T06:47:22.770Z,36.80
2018-07-01T06:48:25.155Z,36.80
2018-07-01T06:50:29.986Z,37.00
2018-07-01T06:51:32.374Z,37.00
2018-07-01T06:52:34.782Z,37.10
2018-07-01T06:53:37.737Z,36.70
2018-07-01T06:54:40.088Z,37.00
2018-07-01T06:55:42.496Z,37.30
2018-07-01T06:56:45.495Z,37.20
2018-07-01T06:57:47.848Z,37.30
2018-07-01T06:58:50.300Z,36.90
2018-07-01T06:59:52.758Z,37.20
2018-07-01T07:00:55.119Z,37.10
2018-07-01T07:01:57.506Z,37.00
2018-07-01T07:02:59.903Z,36.80
2018-07-01T07:04:02.271Z,36.90
2018-07-01T07:05:04.696Z,37.00
2018-07-01T07:06:07.143Z,37.30
2018-07-01T07:07:09.500Z,37.40
2018-07-01T07:08:11.846Z,37.20
2018-07-01T07:09:14.254Z,37.70
2018-07-01T07:11:18.955Z,36.70
2018-07-01T07:12:21.434Z,37.10
2018-07-01T07:14:26.174Z,37.00
2018-07-01T07:15:28.530Z,36.70
2018-07-01T07:16:30.991Z,37.00
2018-07-01T07:17:34.050Z,37.00
2018-07-01T07:18:36.486Z,37.20
2018-07-01T07:19:38.899Z,37.30
2018-07-01T07:20:41.318Z,37.10
2018-07-01T07:21:43.738Z,37.00
2018-07-01T07:22:46.058Z,37.00
2018-07-01T07:23:48.403Z,37.10
2018-07-01T07:24:50.780Z,37.10
2018-07-01T07:25:53.203Z,37.80
2018-07-01T07:26:55.694Z,37.90
2018-07-01T07:27:58.104Z,37.10
2018-07-01T07:29:00.459Z,37.40
2018-07-01T07:30:02.943Z,37.10
2018-07-01T07:31:05.478Z,38.00
2018-07-01T07:32:07.860Z,37.40
2018-07-01T07:33:10.139Z,37.40
2018-07-01T07:34:12.358Z,37.70
2018-07-01T07:35:14.615Z,37.00
2018-07-01T07:36:17.363Z,37.10
2018-07-01T07:37:19.642Z,37.30
2018-07-01T07:38:21.905Z,37.50
2018-07-01T07:39:24.138Z,37.40
2018-07-01T07:40:26.359Z,37.20
2018-07-01T07:41:28.623Z,37.70
2018-07-01T07:42:30.894Z,37.50
2018-07-01T07:43:33.105Z,38.30
2018-07-01T07:44:35.310Z,37.50
2018-07-01T07:45:37.556Z,37.80
2018-07-01T07:46:39.762Z,37.90
2018-07-01T07:47:41.975Z,38.10
2018-07-01T07:48:44.261Z,38.00
2018-07-01T07:49:46.507Z,37.60
2018-07-01T07:50:48.736Z,37.40
2018-07-01T07:51:51.020Z,37.40
2018-07-01T07:52:53.278Z,38.00
2018-07-01T07:53:55.493Z,38.10
2018-07-01T07:54:57.779Z,37.70
2018-07-01T07:56:00.019Z,37.70
2018-07-01T07:57:02.261Z,37.80
2018-07-01T07:58:04.494Z,37.50
2018-07-01T07:59:06.750Z,37.70
2018-07-01T08:00:08.946Z,37.10
2018-07-01T08:01:11.171Z,37.00
2018-07-01T08:02:13.401Z,37.20
2018-07-01T08:03:15.619Z,37.10
2018-07-01T08:04:17.881Z,37.50
2018-07-01T08:05:20.141Z,37.20
2018-07-01T08:06:22.380Z,36.90
2018-07-01T08:07:24.720Z,37.10
2018-07-01T08:09:29.178Z,37.70
2018-07-01T08:10:31.415Z,38.10
2018-07-01T08:12:35.842Z,37.50
2018-07-01T08:13:38.062Z,36.90
2018-07-01T08:14:40.290Z,37.50
2018-07-01T08:15:42.566Z,37.70
2018-07-01T08:16:44.858Z,37.70
2018-07-01T08:17:47.070Z,37.70
2018-07-01T08:18:49.302Z,37.70
2018-07-01T08:19:51.554Z,36.80
2018-07-01T08:20:53.799Z,37.00
2018-07-01T08:22:58.306Z,36.90
2018-07-01T08:25:02.799Z,36.60
2018-07-01T08:26:05.068Z,36.50
2018-07-01T08:28:09.527Z,35.70
2018-07-01T08:29:11.731Z,36.00
2018-07-01T08:30:13.936Z,35.90
2018-07-01T08:31:16.153Z,36.10
2018-07-01T08:32:18.394Z,36.40
2018-07-01T08:33:20.730Z,36.00
2018-07-01T08:34:22.945Z,36.00
2018-07-01T08:35:25.262Z,36.20
2018-07-01T08:36:27.659Z,36.30
2018-07-01T08:37:29.890Z,36.30
2018-07-01T08:38:32.172Z,36.00
2018-07-01T08:39:34.382Z,36.10
2018-07-01T08:40:36.602Z,36.30
2018-07-01T08:43:50.479Z,35.90
2018-07-01T08:44:53.556Z,36.10
2018-07-01T08:45:55.776Z,36.20
2018-07-01T08:46:58.028Z,36.20
2018-07-01T08:48:01.016Z,36.50
2018-07-01T08:49:03.392Z,35.90
2018-07-01T08:50:06.274Z,36.10
2018-07-01T08:51:08.527Z,35.80
2018-07-01T08:53:13.218Z,36.40
2018-07-01T08:54:15.410Z,36.20
2018-07-01T08:55:17.627Z,35.80
2018-07-01T08:56:19.874Z,35.70
2018-07-01T08:57:23.369Z,35.90
2018-07-01T08:58:25.614Z,35.40
2018-07-01T08:59:27.823Z,35.40
2018-07-01T09:00:30.046Z,35.40
2018-07-01T09:01:32.250Z,35.80
2018-07-01T09:02:34.545Z,35.40
2018-07-01T09:03:36.746Z,35.70
2018-07-01T09:04:39.193Z,35.50
2018-07-01T09:05:41.431Z,35.60
2018-07-01T09:06:43.642Z,35.50
2018-07-01T09:07:45.843Z,35.60
2018-07-01T09:08:48.088Z,34.90
2018-07-01T09:09:50.767Z,35.50
2018-07-01T09:10:53.098Z,35.40
2018-07-01T09:12:58.438Z,34.90
2018-07-01T09:15:02.960Z,34.90
2018-07-01T09:16:05.287Z,35.20
2018-07-01T09:17:07.678Z,35.00
2018-07-01T09:18:09.869Z,34.90
2018-07-01T09:19:12.089Z,34.90
2018-07-01T09:20:14.319Z,34.90
2018-07-01T09:21:16.549Z,35.00
2018-07-01T09:22:18.834Z,35.00
2018-07-01T09:23:21.079Z,34.90
2018-07-01T09:24:23.301Z,34.50
2018-07-01T09:25:25.550Z,35.00
2018-07-01T09:27:30.030Z,35.00
2018-07-01T09:28:32.245Z,35.10
2018-07-01T09:29:39.079Z,34.50
2018-07-01T09:30:41.290Z,34.60
2018-07-01T09:31:46.669Z,34.80
2018-07-01T09:32:48.958Z,34.70
2018-07-01T09:33:51.206Z,34.00
2018-07-01T09:35:55.666Z,34.20
2018-07-01T09:36:57.958Z,35.10
2018-07-01T09:38:00.198Z,35.40
2018-07-01T09:39:02.515Z,35.10
2018-07-01T09:40:04.975Z,34.70
2018-07-01T09:41:07.243Z,34.70
2018-07-01T09:42:09.469Z,35.30
2018-07-01T09:43:11.693Z,35.30
2018-07-01T09:44:13.922Z,34.10
2018-07-01T09:46:18.390Z,33.90
2018-07-01T09:47:20.610Z,33.70
2018-07-01T09:48:22.830Z,32.80
2018-07-01T09:49:25.090Z,33.10
2018-07-01T09:50:27.393Z,33.20
2018-07-01T09:51:29.550Z,33.60
2018-07-01T09:52:31.766Z,32.10
2018-07-01T09:53:33.975Z,32.50
2018-07-01T09:54:36.182Z,32.50
2018-07-01T09:55:38.439Z,32.90
2018-07-01T09:56:40.629Z,32.00
2018-07-01T09:57:42.862Z,32.50
2018-07-01T09:58:45.068Z,32.80
2018-07-01T09:59:47.306Z,33.10
2018-07-01T10:00:49.502Z,33.30
2018-07-01T10:01:51.719Z,33.10
2018-07-01T10:02:53.940Z,33.60
2018-07-01T10:03:56.578Z,32.40
2018-07-01T10:06:01.042Z,32.80
2018-07-01T10:08:05.606Z,32.80
2018-07-01T10:09:09.125Z,32.00
2018-07-01T10:10:11.403Z,32.30
2018-07-01T10:11:15.744Z,32.10
2018-07-01T10:12:19.573Z,32.40
2018-07-01T10:13:22.870Z,32.50
2018-07-01T10:14:25.074Z,32.10
2018-07-01T10:16:41.952Z,31.70
2018-07-01T10:17:44.262Z,32.10
2018-07-01T10:18:46.581Z,31.10
2018-07-01T10:19:48.815Z,31.60
2018-07-01T10:20:51.098Z,31.70
2018-07-01T10:21:53.384Z,32.00
2018-07-01T10:23:57.882Z,32.50
2018-07-01T10:25:00.102Z,32.10
2018-07-01T10:26:02.376Z,31.10
2018-07-01T10:27:04.606Z,32.30
2018-07-01T10:28:06.858Z,32.20
2018-07-01T10:29:12.061Z,32.20
2018-07-01T10:30:14.310Z,32.00
2018-07-01T10:31:16.550Z,32.00
2018-07-01T10:32:18.846Z,32.50
2018-07-01T10:33:21.042Z,32.20
2018-07-01T10:34:24.082Z,32.40
2018-07-01T10:35:26.458Z,31.30
2018-07-01T10:36:28.847Z,31.50
2018-07-01T10:38:33.365Z,31.70
2018-07-01T10:39:35.702Z,31.20
2018-07-01T10:41:40.437Z,31.30
2018-07-01T10:42:42.917Z,30.60
2018-07-01T10:43:45.145Z,31.00
2018-07-01T10:45:49.843Z,30.80
2018-07-01T10:46:52.105Z,30.50
2018-07-01T10:47:55.272Z,30.80
2018-07-01T10:48:57.562Z,30.00
2018-07-01T10:50:00.051Z,30.00
2018-07-01T10:51:02.278Z,30.50
2018-07-01T10:52:04.724Z,30.80
2018-07-01T10:53:07.382Z,31.10
2018-07-01T10:54:09.578Z,29.80
2018-07-01T10:55:11.778Z,29.90
2018-07-01T10:56:14.182Z,30.20
2018-07-01T10:57:16.395Z,30.50
2018-07-01T10:58:18.599Z,29.90
2018-07-01T10:59:20.874Z,30.00
2018-07-01T11:00:23.199Z,30.70
2018-07-01T11:01:25.426Z,30.10
2018-07-01T11:02:27.642Z,30.20
2018-07-01T11:03:29.859Z,30.80
2018-07-01T11:04:32.109Z,30.70
2018-07-01T11:06:36.674Z,30.20
2018-07-01T11:07:38.865Z,30.00
2018-07-01T11:09:43.349Z,30.50
2018-07-01T11:10:45.599Z,29.90
2018-07-01T11:12:50.043Z,29.00
2018-07-01T11:13:55.465Z,28.70
2018-07-01T11:14:57.679Z,28.50
2018-07-01T11:16:00.367Z,28.90
2018-07-01T11:17:02.586Z,29.20
2018-07-01T11:19:07.114Z,28.50
2018-07-01T11:20:09.323Z,28.90
2018-07-01T11:21:11.534Z,28.20
2018-07-01T11:22:13.749Z,28.70
2018-07-01T11:23:15.987Z,28.70
2018-07-01T11:24:18.221Z,28.90
2018-07-01T11:25:20.411Z,28.90
2018-07-01T11:26:22.707Z,28.00
2018-07-01T11:27:25.062Z,28.60
2018-07-01T11:29:29.506Z,28.90
2018-07-01T11:30:31.718Z,28.50
2018-07-01T11:31:33.922Z,28.90
2018-07-01T11:32:36.147Z,29.20
2018-07-01T11:33:38.410Z,29.20
2018-07-01T11:35:42.911Z,28.20
2018-07-01T11:36:45.114Z,28.30
2018-07-01T11:37:47.342Z,28.80
2018-07-01T11:38:49.566Z,29.10
2018-07-01T11:39:51.797Z,28.90
2018-07-01T11:41:56.294Z,28.60
2018-07-01T11:42:58.530Z,28.40
2018-07-01T11:44:00.753Z,28.10
2018-07-01T11:45:03.006Z,28.10
2018-07-01T11:46:05.230Z,28.10
2018-07-01T11:47:07.490Z,28.20
2018-07-01T11:48:09.741Z,27.60
2018-07-01T11:49:11.965Z,27.20
2018-07-01T11:50:14.179Z,27.50
2018-07-01T11:51:16.392Z,27.30
2018-07-01T11:52:18.702Z,27.40
2018-07-01T11:53:20.854Z,28.30
2018-07-01T11:54:23.057Z,28.50
2018-07-01T11:55:25.281Z,28.30
2018-07-01T11:56:27.478Z,28.30
2018-07-01T11:57:29.690Z,28.30
2018-07-01T11:58:31.895Z,28.40
2018-07-01T11:59:34.115Z,28.10
2018-07-01T12:00:36.324Z,27.80
2018-07-01T12:01:38.570Z,27.10
2018-07-01T12:03:43.034Z,28.00
2018-07-01T12:05:02.956Z,28.10
2018-07-01T12:05:47.562Z,27.50
2018-07-01T12:06:49.815Z,27.10
2018-07-01T12:07:52.384Z,26.20
2018-07-01T12:08:54.550Z,26.80
2018-07-01T12:09:56.774Z,27.20
2018-07-01T12:10:58.996Z,27.10
2018-07-01T12:12:01.313Z,27.20
2018-07-01T12:13:03.462Z,27.60
2018-07-01T12:14:05.758Z,28.00
2018-07-01T12:16:10.211Z,26.70
2018-07-01T12:17:12.442Z,26.20
2018-07-01T12:18:14.650Z,26.50
2018-07-01T12:19:16.882Z,26.50
2018-07-01T12:20:19.121Z,26.50
2018-07-01T12:21:21.334Z,27.40
2018-07-01T12:22:23.595Z,27.20
2018-07-01T12:23:25.836Z,27.10
2018-07-01T12:25:30.278Z,26.70
2018-07-01T12:26:32.490Z,26.10
2018-07-01T12:27:34.702Z,25.90
2018-07-01T12:28:36.926Z,26.40
2018-07-01T12:29:39.118Z,26.60
2018-07-01T12:30:41.341Z,26.60
2018-07-01T12:31:43.580Z,26.10
2018-07-01T12:32:45.772Z,26.80
2018-07-01T12:33:47.973Z,25.80
2018-07-01T12:34:50.264Z,25.30
2018-07-01T12:35:52.454Z,25.90
2018-07-01T12:36:54.705Z,25.80
2018-07-01T12:37:56.933Z,25.60
2018-07-01T12:38:59.130Z,25.50
2018-07-01T12:40:01.345Z,25.30
2018-07-01T12:41:03.598Z,25.60
2018-07-01T12:42:05.935Z,25.40
2018-07-01T12:43:08.091Z,26.20
2018-07-01T12:44:10.299Z,26.10
2018-07-01T12:45:12.558Z,25.90
2018-07-01T12:46:14.825Z,24.90
2018-07-01T12:47:17.009Z,25.00
2018-07-01T12:48:19.263Z,25.60
2018-07-01T12:50:23.743Z,25.10
2018-07-01T12:51:25.947Z,25.00
2018-07-01T12:52:28.160Z,26.30
2018-07-01T12:53:30.362Z,26.30
2018-07-01T12:54:32.635Z,25.50
2018-07-01T12:55:34.830Z,25.50
2018-07-01T12:56:37.084Z,26.00
2018-07-01T12:57:39.223Z,25.40
2018-07-01T12:58:41.419Z,25.20
2018-07-01T12:59:43.630Z,25.50
2018-07-01T13:00:45.850Z,24.80
2018-07-01T13:01:48.062Z,24.80
2018-07-01T13:02:50.286Z,25.30
2018-07-01T13:03:52.481Z,25.40
2018-07-01T13:04:54.706Z,25.10
2018-07-01T13:05:56.969Z,24.90
2018-07-01T13:06:59.182Z,24.70
2018-07-01T13:08:01.379Z,24.70
2018-07-01T13:09:07.134Z,24.70
2018-07-01T13:10:09.357Z,24.50
2018-07-01T13:11:11.590Z,23.40
2018-07-01T13:12:13.893Z,24.10
2018-07-01T13:13:16.060Z,23.90
2018-07-01T13:14:18.302Z,24.00
2018-07-01T13:15:21.332Z,23.70
2018-07-01T13:16:23.535Z,24.70
2018-07-01T13:17:25.759Z,24.00
2018-07-01T13:18:28.011Z,23.60
2018-07-01T13:19:30.233Z,23.70
2018-07-01T13:20:32.454Z,24.10
2018-07-01T13:21:34.731Z,24.90
2018-07-01T13:22:36.938Z,24.60
2018-07-01T13:23:39.169Z,24.70
2018-07-01T13:24:41.405Z,24.50
2018-07-01T13:25:43.633Z,24.80
2018-07-01T13:26:45.836Z,25.00
2018-07-01T13:27:48.119Z,24.10
2018-07-01T13:28:50.358Z,23.60
2018-07-01T13:29:52.545Z,23.90
2018-07-01T13:30:54.770Z,23.60
2018-07-01T13:31:56.976Z,23.60
2018-07-01T13:32:59.215Z,23.70
2018-07-01T13:34:01.450Z,24.00
2018-07-01T13:35:03.695Z,24.10
2018-07-01T13:36:05.939Z,23.90
2018-07-01T13:37:08.176Z,23.50
2018-07-01T13:38:10.386Z,23.00
2018-07-01T13:39:12.678Z,22.60
2018-07-01T13:40:14.934Z,22.70
2018-07-01T13:41:17.145Z,23.00
2018-07-01T13:42:19.440Z,23.00
2018-07-01T13:43:21.688Z,23.50
2018-07-01T13:45:26.178Z,22.70
2018-07-01T13:46:28.463Z,23.00
2018-07-01T13:47:30.706Z,23.00
2018-07-01T13:48:32.914Z,23.40
2018-07-01T13:49:35.126Z,23.90
2018-07-01T13:50:37.331Z,24.10
2018-07-01T13:51:39.550Z,23.60
2018-07-01T13:52:41.778Z,25.10
2018-07-01T13:53:43.998Z,22.20
2018-07-01T13:54:46.222Z,23.60
2018-07-01T13:55:48.454Z,23.50
2018-07-01T13:56:50.750Z,23.80
2018-07-01T13:57:52.934Z,24.00
2018-07-01T13:58:55.502Z,24.90
2018-07-01T13:59:57.719Z,23.60
2018-07-01T14:00:59.962Z,24.20
2018-07-01T14:02:02.196Z,24.20
2018-07-01T14:03:04.839Z,23.60
2018-07-01T14:04:07.134Z,23.50
2018-07-01T14:05:09.350Z,24.50
2018-07-01T14:06:11.674Z,24.40
2018-07-01T14:07:13.798Z,23.60
2018-07-01T14:08:16.032Z,23.30
2018-07-01T14:10:20.521Z,24.60
2018-07-01T14:11:22.728Z,23.10
2018-07-01T14:12:24.981Z,24.00
2018-07-01T14:13:27.195Z,24.30
2018-07-01T14:14:29.449Z,23.80
2018-07-01T14:15:31.674Z,23.80
2018-07-01T14:16:33.927Z,23.30
2018-07-01T14:17:36.159Z,23.20
2018-07-01T14:18:38.450Z,23.80
2018-07-01T14:19:40.650Z,24.40
2018-07-01T14:20:42.868Z,24.20
2018-07-01T14:21:45.080Z,23.80
2018-07-01T14:22:47.302Z,23.70
2018-07-01T14:24:58.682Z,24.10
2018-07-01T14:26:00.940Z,23.40
2018-07-01T14:27:03.268Z,24.00
2018-07-01T14:28:05.434Z,24.20
2018-07-01T14:29:08.203Z,23.80
2018-07-01T14:30:10.506Z,24.00
2018-07-01T14:31:12.702Z,24.00
2018-07-01T14:32:14.933Z,24.10
2018-07-01T14:33:17.182Z,23.90
2018-07-01T14:34:19.382Z,24.10
2018-07-01T14:35:23.181Z,24.40
2018-07-01T14:36:26.476Z,24.10
2018-07-01T14:37:30.897Z,24.40
2018-07-01T14:38:33.289Z,24.60
2018-07-01T14:39:35.522Z,24.40